createdAt,value
2022-11-21T00:00:49.806Z,0
2022-11-21T00:01:47.259Z,0
2022-11-21T00:02:47.070Z,0
2022-11-21T00:03:47.030Z,0
2022-11-21T00:04:47.151Z,0
2022-11-21T00:05:48.081Z,0
2022-11-21T00:06:47.046Z,0
2022-11-21T00:07:47.226Z,0
2022-11-21T00:08:47.062Z,0
2022-11-21T00:09:47.036Z,0
2022-11-21T00:10:47.028Z,0
2022-11-21T00:11:49.834Z,0
2022-11-21T00:12:47.051Z,0
2022-11-21T00:13:47.091Z,0
2022-11-21T00:14:47.051Z,0
2022-11-21T00:15:47.050Z,0
2022-11-21T00:16:53.273Z,0
2022-11-21T00:17:47.097Z,0
2022-11-21T00:18:47.090Z,0
2022-11-21T00:19:47.050Z,0
2022-11-21T00:20:46.902Z,0
2022-11-21T00:21:47.059Z,0
2022-11-21T00:22:50.199Z,0
2022-11-21T00:23:47.044Z,0
2022-11-21T00:24:49.505Z,0
2022-11-21T00:25:47.041Z,0
2022-11-21T00:26:47.056Z,0
2022-11-21T00:27:50.167Z,0
2022-11-21T00:28:47.090Z,0
2022-11-21T00:29:47.083Z,0
2022-11-21T00:30:47.059Z,0
2022-11-21T00:31:47.287Z,0
2022-11-21T00:32:47.081Z,0
2022-11-21T00:33:47.060Z,0
2022-11-21T00:34:47.083Z,0
2022-11-21T00:35:47.067Z,0
2022-11-21T00:36:47.053Z,0
2022-11-21T00:37:47.095Z,0
2022-11-21T00:38:47.240Z,0
2022-11-21T00:39:47.083Z,0
2022-11-21T00:40:47.059Z,0
2022-11-21T00:41:47.075Z,0
2022-11-21T00:42:47.089Z,0
2022-11-21T00:43:47.104Z,0
2022-11-21T00:44:47.118Z,0
2022-11-21T00:45:47.086Z,0
2022-11-21T00:46:47.147Z,0
2022-11-21T00:47:47.095Z,0
2022-11-21T00:48:47.102Z,0
2022-11-21T00:49:47.110Z,0
2022-11-21T00:50:47.102Z,0
2022-11-21T00:51:47.085Z,0
2022-11-21T00:52:47.086Z,0
2022-11-21T00:53:47.084Z,0
2022-11-21T00:54:47.138Z,0
2022-11-21T00:55:47.090Z,0
2022-11-21T00:56:47.103Z,0
2022-11-21T00:57:47.125Z,0
2022-11-21T00:58:47.116Z,0
2022-11-21T00:59:47.097Z,0
2022-11-21T01:00:47.445Z,0
2022-11-21T01:01:47.090Z,0
2022-11-21T01:02:47.098Z,0
2022-11-21T01:03:47.125Z,0
2022-11-21T01:04:47.102Z,0
2022-11-21T01:05:48.161Z,0
2022-11-21T01:06:47.098Z,0
2022-11-21T01:07:47.518Z,0
2022-11-21T01:08:47.123Z,0
2022-11-21T01:09:47.119Z,0
2022-11-21T01:10:50.260Z,0
2022-11-21T01:11:47.136Z,0
2022-11-21T01:12:47.205Z,0
2022-11-21T01:13:47.126Z,0
2022-11-21T01:14:47.144Z,0
2022-11-21T01:15:47.115Z,0
2022-11-21T01:16:50.119Z,0
2022-11-21T01:17:47.131Z,0
2022-11-21T01:18:47.129Z,0
2022-11-21T01:19:47.126Z,0
2022-11-21T01:20:47.166Z,0
2022-11-21T01:21:50.236Z,0
2022-11-21T01:22:47.269Z,0
2022-11-21T01:23:47.126Z,0
2022-11-21T01:24:47.143Z,0
2022-11-21T01:25:47.126Z,0
2022-11-21T01:26:47.128Z,0
2022-11-21T01:27:49.942Z,0
2022-11-21T01:28:47.420Z,0
2022-11-21T01:29:47.136Z,0
2022-11-21T01:30:47.122Z,0
2022-11-21T01:31:47.144Z,0
2022-11-21T01:32:50.261Z,0
2022-11-21T01:33:47.133Z,0
2022-11-21T01:34:47.147Z,0
2022-11-21T01:35:47.168Z,0
2022-11-21T01:36:47.213Z,0
2022-11-21T01:37:47.170Z,0
2022-11-21T01:38:49.989Z,0
2022-11-21T01:39:47.193Z,0
2022-11-21T01:40:47.182Z,0
2022-11-21T01:41:47.179Z,0
2022-11-21T01:42:47.254Z,0
2022-11-21T01:43:50.069Z,0
2022-11-21T01:44:47.214Z,0
2022-11-21T01:45:47.210Z,0
2022-11-21T01:46:47.261Z,0
2022-11-21T01:47:47.277Z,0
2022-11-21T01:48:47.243Z,0
2022-11-21T01:49:47.265Z,0
2022-11-21T01:50:47.292Z,0
2022-11-21T01:51:47.276Z,0
2022-11-21T01:52:47.246Z,0
2022-11-21T01:53:47.201Z,0
2022-11-21T01:54:50.180Z,0
2022-11-21T01:55:47.178Z,0
2022-11-21T01:56:47.206Z,0
2022-11-21T01:57:47.258Z,0
2022-11-21T01:58:47.216Z,0
2022-11-21T01:59:47.239Z,0
2022-11-21T02:00:47.426Z,0
2022-11-21T02:01:47.165Z,0
2022-11-21T02:02:47.246Z,0
2022-11-21T02:03:47.185Z,0
2022-11-21T02:04:47.181Z,0
2022-11-21T02:05:54.629Z,0
2022-11-21T02:06:47.223Z,0
2022-11-21T02:07:47.396Z,0
2022-11-21T02:08:50.204Z,0
2022-11-21T02:09:47.178Z,0
2022-11-21T02:10:47.200Z,0
2022-11-21T02:11:47.185Z,0
2022-11-21T02:12:47.314Z,0
2022-11-21T02:13:47.195Z,0
2022-11-21T02:14:47.213Z,0
2022-11-21T02:15:47.270Z,0
2022-11-21T02:16:48.245Z,0
2022-11-21T02:17:47.206Z,0
2022-11-21T02:18:47.173Z,0
2022-11-21T02:19:47.166Z,0
2022-11-21T02:20:47.214Z,0
2022-11-21T02:21:49.987Z,0
2022-11-21T02:22:47.242Z,0
2022-11-21T02:23:47.204Z,0
2022-11-21T02:25:47.223Z,0
2022-11-21T02:26:47.244Z,0
2022-11-21T02:27:50.077Z,0
2022-11-21T02:28:47.201Z,0
2022-11-21T02:29:47.214Z,0
2022-11-21T02:30:47.238Z,0
2022-11-21T02:31:47.288Z,0
2022-11-21T02:32:48.118Z,0
2022-11-21T02:33:47.255Z,0
2022-11-21T02:34:47.214Z,0
2022-11-21T02:35:47.230Z,0
2022-11-21T02:36:47.319Z,0
2022-11-21T02:37:47.273Z,0
2022-11-21T02:38:51.694Z,0
2022-11-21T02:39:47.224Z,0
2022-11-21T02:40:47.218Z,0
2022-11-21T02:41:47.209Z,0
2022-11-21T02:42:52.878Z,0
2022-11-21T02:43:50.116Z,0
2022-11-21T02:44:47.201Z,0
2022-11-21T02:45:47.248Z,0
2022-11-21T02:46:47.234Z,0
2022-11-21T02:47:47.323Z,0
2022-11-21T02:48:47.542Z,0
2022-11-21T02:49:50.115Z,0
2022-11-21T02:50:47.233Z,0
2022-11-21T02:51:47.332Z,0
2022-11-21T02:52:47.270Z,0
2022-11-21T02:53:47.430Z,0
2022-11-21T02:54:50.463Z,0
2022-11-21T02:55:47.221Z,0
2022-11-21T02:56:47.256Z,0
2022-11-21T02:57:47.255Z,0
2022-11-21T02:58:47.243Z,0
2022-11-21T02:59:47.295Z,0
2022-11-21T03:00:47.734Z,0
2022-11-21T03:01:47.253Z,0
2022-11-21T03:02:47.301Z,0
2022-11-21T03:03:47.307Z,0
2022-11-21T03:04:47.280Z,0
2022-11-21T03:05:50.277Z,0
2022-11-21T03:06:47.260Z,0
2022-11-21T03:07:47.470Z,0
2022-11-21T03:08:47.253Z,0
2022-11-21T03:09:47.266Z,0
2022-11-21T03:10:47.271Z,0
2022-11-21T03:11:47.255Z,0
2022-11-21T03:12:47.259Z,0
2022-11-21T03:13:47.280Z,0
2022-11-21T03:14:47.239Z,0
2022-11-21T03:15:47.254Z,0
2022-11-21T03:16:47.100Z,0
2022-11-21T03:17:47.286Z,0
2022-11-21T03:18:47.283Z,0
2022-11-21T03:19:47.326Z,0
2022-11-21T03:20:47.287Z,0
2022-11-21T03:21:47.254Z,0
2022-11-21T03:22:47.316Z,0
2022-11-21T03:23:47.273Z,0
2022-11-21T03:24:47.273Z,0
2022-11-21T03:25:47.355Z,0
2022-11-21T03:26:47.289Z,0
2022-11-21T03:27:47.299Z,0
2022-11-21T03:28:47.295Z,0
2022-11-21T03:29:47.265Z,0
2022-11-21T03:30:47.300Z,0
2022-11-21T03:31:47.293Z,0
2022-11-21T03:32:48.372Z,0
2022-11-21T03:33:47.318Z,0
2022-11-21T03:34:47.297Z,0
2022-11-21T03:35:47.381Z,0
2022-11-21T03:36:47.339Z,0
2022-11-21T03:37:47.743Z,0
2022-11-21T03:38:47.273Z,0
2022-11-21T03:39:47.276Z,0
2022-11-21T03:40:47.293Z,0
2022-11-21T03:41:47.312Z,0
2022-11-21T03:42:47.303Z,0
2022-11-21T03:43:50.149Z,0
2022-11-21T03:44:47.303Z,0
2022-11-21T03:45:47.305Z,0
2022-11-21T03:46:47.288Z,0
2022-11-21T03:47:47.314Z,0
2022-11-21T03:48:50.178Z,0
2022-11-21T03:49:47.303Z,0
2022-11-21T03:50:47.314Z,0
2022-11-21T03:51:47.370Z,0
2022-11-21T03:52:47.346Z,0
2022-11-21T03:53:47.281Z,0
2022-11-21T03:54:50.163Z,0
2022-11-21T03:55:47.304Z,0
2022-11-21T03:56:47.319Z,0
2022-11-21T03:57:47.327Z,0
2022-11-21T03:58:47.305Z,0
2022-11-21T03:59:50.127Z,0
2022-11-21T04:00:47.334Z,0
2022-11-21T04:01:47.907Z,0
2022-11-21T04:02:47.392Z,0
2022-11-21T04:03:47.334Z,0
2022-11-21T04:04:47.335Z,0
2022-11-21T04:05:47.388Z,0
2022-11-21T04:06:47.396Z,0
2022-11-21T04:07:47.759Z,0
2022-11-21T04:08:47.466Z,0
2022-11-21T04:09:47.358Z,0
2022-11-21T04:10:50.367Z,0
2022-11-21T04:11:47.471Z,0
2022-11-21T04:12:47.392Z,0
2022-11-21T04:13:47.389Z,0
2022-11-21T04:14:47.359Z,0
2022-11-21T04:15:47.341Z,0
2022-11-21T04:16:47.364Z,0
2022-11-21T04:17:47.528Z,0
2022-11-21T04:18:47.324Z,0
2022-11-21T04:19:47.398Z,0
2022-11-21T04:20:47.411Z,0
2022-11-21T04:21:50.104Z,0
2022-11-21T04:22:47.372Z,0
2022-11-21T04:23:47.405Z,0
2022-11-21T04:24:47.369Z,0
2022-11-21T04:25:47.368Z,0
2022-11-21T04:26:47.347Z,0
2022-11-21T04:27:47.355Z,0
2022-11-21T04:28:47.412Z,0
2022-11-21T04:29:47.347Z,0
2022-11-21T04:30:47.337Z,0
2022-11-21T04:31:47.356Z,0
2022-11-21T04:32:50.368Z,0
2022-11-21T04:33:47.344Z,0
2022-11-21T04:34:47.343Z,0
2022-11-21T04:35:47.356Z,0
2022-11-21T04:36:47.635Z,0
2022-11-21T04:37:47.330Z,0
2022-11-21T04:38:47.364Z,0
2022-11-21T04:39:47.460Z,0
2022-11-21T04:40:47.380Z,0
2022-11-21T04:41:47.337Z,0
2022-11-21T04:42:47.361Z,0
2022-11-21T04:43:48.455Z,0
2022-11-21T04:44:47.359Z,0
2022-11-21T04:45:47.344Z,0
2022-11-21T04:46:47.377Z,0
2022-11-21T04:47:47.376Z,0
2022-11-21T04:48:48.063Z,0
2022-11-21T04:49:47.376Z,0
2022-11-21T04:50:47.401Z,0
2022-11-21T04:51:47.362Z,0
2022-11-21T04:52:47.403Z,0
2022-11-21T04:53:50.020Z,0
2022-11-21T04:54:50.432Z,0
2022-11-21T04:55:47.393Z,0
2022-11-21T04:56:47.415Z,0
2022-11-21T04:57:47.376Z,0
2022-11-21T04:58:47.380Z,0
2022-11-21T04:59:50.429Z,0
2022-11-21T05:00:47.372Z,0
2022-11-21T05:01:47.619Z,0
2022-11-21T05:02:47.379Z,0
2022-11-21T05:03:47.417Z,0
2022-11-21T05:04:47.415Z,0
2022-11-21T05:05:50.121Z,0
2022-11-21T05:06:47.378Z,0
2022-11-21T05:07:47.485Z,0
2022-11-21T05:08:56.352Z,0
2022-11-21T05:09:47.382Z,0
2022-11-21T05:10:50.474Z,0
2022-11-21T05:11:47.369Z,0
2022-11-21T05:12:47.415Z,0
2022-11-21T05:13:47.235Z,0
2022-11-21T05:14:47.410Z,0
2022-11-21T05:15:47.408Z,0
2022-11-21T05:16:50.531Z,0
2022-11-21T05:17:47.400Z,0
2022-11-21T05:18:47.413Z,0
2022-11-21T05:19:47.420Z,0
2022-11-21T05:20:47.430Z,0
2022-11-21T05:21:50.350Z,0
2022-11-21T05:22:47.406Z,0
2022-11-21T05:23:47.449Z,0
2022-11-21T05:24:47.418Z,0
2022-11-21T05:25:47.416Z,0
2022-11-21T05:26:47.312Z,0
2022-11-21T05:27:47.398Z,0
2022-11-21T05:28:47.481Z,0
2022-11-21T05:29:47.428Z,0
2022-11-21T05:30:47.394Z,0
2022-11-21T05:31:47.440Z,0
2022-11-21T05:32:50.515Z,0
2022-11-21T05:33:47.479Z,0
2022-11-21T05:34:47.441Z,0
2022-11-21T05:35:50.232Z,0
2022-11-21T05:36:47.416Z,0
2022-11-21T05:37:47.435Z,0
2022-11-21T05:38:47.622Z,0
2022-11-21T05:39:47.476Z,0
2022-11-21T05:40:47.440Z,0
2022-11-21T05:41:47.478Z,0
2022-11-21T05:42:47.488Z,0
2022-11-21T05:43:47.429Z,0
2022-11-21T05:44:47.478Z,0
2022-11-21T05:45:47.479Z,0
2022-11-21T05:46:47.418Z,0
2022-11-21T05:47:47.427Z,0
2022-11-21T05:48:47.419Z,0
2022-11-21T05:49:47.471Z,0
2022-11-21T05:50:47.468Z,0
2022-11-21T05:51:47.442Z,0
2022-11-21T05:52:47.461Z,0
2022-11-21T05:53:47.439Z,0
2022-11-21T05:54:53.809Z,0
2022-11-21T05:55:47.434Z,0
2022-11-21T05:56:47.464Z,0
2022-11-21T05:57:47.432Z,0
2022-11-21T05:58:47.601Z,0
2022-11-21T05:59:50.266Z,0
2022-11-21T06:00:47.489Z,0
2022-11-21T06:01:47.460Z,0
2022-11-21T06:02:47.616Z,0
2022-11-21T06:03:47.441Z,0
2022-11-21T06:04:50.264Z,0
2022-11-21T06:05:47.448Z,0
2022-11-21T06:06:47.463Z,0
2022-11-21T06:07:47.779Z,0
2022-11-21T06:08:47.304Z,0
2022-11-21T06:09:47.511Z,0
2022-11-21T06:10:50.500Z,0
2022-11-21T06:11:47.454Z,0
2022-11-21T06:12:47.462Z,0
2022-11-21T06:13:47.468Z,0
2022-11-21T06:14:47.621Z,0
2022-11-21T06:15:50.255Z,0
2022-11-21T06:16:47.484Z,0
2022-11-21T06:17:47.470Z,0
2022-11-21T06:18:47.495Z,0
2022-11-21T06:19:47.523Z,0
2022-11-21T06:20:47.475Z,4
2022-11-21T06:21:50.502Z,4
2022-11-21T06:22:47.479Z,0
2022-11-21T06:23:47.476Z,0
2022-11-21T06:24:47.541Z,0
2022-11-21T06:25:47.449Z,0
2022-11-21T06:26:50.491Z,4
2022-11-21T06:27:47.457Z,4
2022-11-21T06:28:47.486Z,4
2022-11-21T06:29:47.503Z,4
2022-11-21T06:30:47.563Z,0
2022-11-21T06:31:47.483Z,0
2022-11-21T06:32:50.889Z,0
2022-11-21T06:33:47.493Z,4
2022-11-21T06:34:47.554Z,4
2022-11-21T06:35:47.466Z,4
2022-11-21T06:36:47.508Z,0
2022-11-21T06:37:56.082Z,4
2022-11-21T06:38:47.488Z,4
2022-11-21T06:39:47.513Z,4
2022-11-21T06:40:47.507Z,4
2022-11-21T06:41:47.535Z,4
2022-11-21T06:42:47.474Z,8
2022-11-21T06:43:47.350Z,4
2022-11-21T06:44:47.507Z,8
2022-11-21T06:45:47.347Z,8
2022-11-21T06:46:53.955Z,8
2022-11-21T06:47:47.502Z,12
2022-11-21T06:48:50.334Z,12
2022-11-21T06:49:47.520Z,12
2022-11-21T06:50:47.502Z,12
2022-11-21T06:51:47.495Z,12
2022-11-21T06:52:47.538Z,16
2022-11-21T06:53:47.521Z,16
2022-11-21T06:54:47.528Z,16
2022-11-21T06:55:47.517Z,20
2022-11-21T06:56:47.504Z,24
2022-11-21T06:57:50.312Z,24
2022-11-21T06:58:47.524Z,24
2022-11-21T06:59:50.328Z,24
2022-11-21T07:00:47.516Z,28
2022-11-21T07:01:47.863Z,32
2022-11-21T07:02:47.786Z,36
2022-11-21T07:03:47.553Z,36
2022-11-21T07:04:47.630Z,40
2022-11-21T07:05:47.538Z,44
2022-11-21T07:06:47.546Z,44
2022-11-21T07:07:47.762Z,44
2022-11-21T07:08:52.419Z,44
2022-11-21T07:09:47.922Z,44
2022-11-21T07:11:28.687Z,40
2022-11-21T07:11:47.544Z,44
2022-11-21T07:12:47.535Z,48
2022-11-21T07:13:47.517Z,48
2022-11-21T07:14:47.703Z,56
2022-11-21T07:15:50.564Z,60
2022-11-21T07:16:47.598Z,64
2022-11-21T07:17:47.524Z,72
2022-11-21T07:18:47.663Z,88
2022-11-21T07:19:48.083Z,92
2022-11-21T07:20:47.564Z,100
2022-11-21T07:21:50.694Z,124
2022-11-21T07:22:47.548Z,112
2022-11-21T07:23:47.544Z,88
2022-11-21T07:24:47.568Z,64
2022-11-21T07:25:47.575Z,60
2022-11-21T07:26:50.634Z,60
2022-11-21T07:27:47.590Z,64
2022-11-21T07:28:47.566Z,76
2022-11-21T07:29:47.567Z,88
2022-11-21T07:30:47.560Z,116
2022-11-21T07:31:48.555Z,160
2022-11-21T07:32:50.358Z,156
2022-11-21T07:33:47.564Z,148
2022-11-21T07:34:47.638Z,152
2022-11-21T07:35:47.540Z,156
2022-11-21T07:36:47.576Z,176
2022-11-21T07:37:50.383Z,292
2022-11-21T07:38:47.566Z,300
2022-11-21T07:39:47.659Z,332
2022-11-21T07:40:47.568Z,728
2022-11-21T07:41:47.554Z,2380
2022-11-21T07:42:47.564Z,2880
2022-11-21T07:43:50.580Z,3516
2022-11-21T07:44:47.623Z,4076
2022-11-21T07:45:47.571Z,4248
2022-11-21T07:46:47.574Z,4208
2022-11-21T07:47:47.559Z,1300
2022-11-21T07:48:53.365Z,248
2022-11-21T07:49:47.599Z,260
2022-11-21T07:50:47.642Z,420
2022-11-21T07:51:47.567Z,348
2022-11-21T07:52:47.595Z,564
2022-11-21T07:53:47.580Z,284
2022-11-21T07:54:47.609Z,1124
2022-11-21T07:55:48.083Z,872
2022-11-21T07:56:47.582Z,284
2022-11-21T07:57:47.570Z,900
2022-11-21T07:58:47.583Z,204
2022-11-21T07:59:51.091Z,184
2022-11-21T08:00:47.998Z,172
2022-11-21T08:01:52.542Z,164
2022-11-21T08:02:47.566Z,164
2022-11-21T08:03:47.602Z,172
2022-11-21T08:04:47.634Z,188
2022-11-21T08:05:47.601Z,200
2022-11-21T08:06:47.697Z,220
2022-11-21T08:07:47.897Z,244
2022-11-21T08:08:47.621Z,368
2022-11-21T08:09:47.647Z,368
2022-11-21T08:10:47.623Z,344
2022-11-21T08:11:47.570Z,332
2022-11-21T08:12:47.601Z,320
2022-11-21T08:13:47.602Z,304
2022-11-21T08:14:47.645Z,312
2022-11-21T08:15:47.580Z,288
2022-11-21T08:16:47.603Z,276
2022-11-21T08:17:47.606Z,252
2022-11-21T08:18:47.599Z,236
2022-11-21T08:19:47.627Z,300
2022-11-21T08:20:47.644Z,308
2022-11-21T08:21:47.643Z,308
2022-11-21T08:22:47.706Z,312
2022-11-21T08:23:47.610Z,308
2022-11-21T08:24:47.665Z,300
2022-11-21T08:25:47.611Z,300
2022-11-21T08:26:50.666Z,292
2022-11-21T08:27:47.608Z,292
2022-11-21T08:28:47.682Z,288
2022-11-21T08:29:47.648Z,292
2022-11-21T08:30:47.620Z,296
2022-11-21T08:31:50.633Z,320
2022-11-21T08:32:47.637Z,324
2022-11-21T08:33:47.643Z,256
2022-11-21T08:34:47.738Z,276
2022-11-21T08:35:47.654Z,348
2022-11-21T08:36:47.649Z,364
2022-11-21T08:37:50.538Z,352
2022-11-21T08:38:47.687Z,328
2022-11-21T08:39:47.668Z,312
2022-11-21T08:40:47.688Z,312
2022-11-21T08:41:47.631Z,316
2022-11-21T08:42:50.842Z,316
2022-11-21T08:43:47.642Z,316
2022-11-21T08:44:47.714Z,308
2022-11-21T08:45:47.645Z,304
2022-11-21T08:46:50.624Z,312
2022-11-21T08:47:47.851Z,312
2022-11-21T08:48:50.425Z,312
2022-11-21T08:49:47.690Z,320
2022-11-21T08:50:47.649Z,312
2022-11-21T08:51:47.674Z,284
2022-11-21T08:52:47.634Z,236
2022-11-21T08:53:48.739Z,280
2022-11-21T08:54:47.845Z,280
2022-11-21T08:55:47.662Z,280
2022-11-21T08:56:47.708Z,284
2022-11-21T08:57:47.654Z,284
2022-11-21T08:58:47.644Z,288
2022-11-21T08:59:47.674Z,292
2022-11-21T09:00:47.680Z,304
2022-11-21T09:01:48.025Z,344
2022-11-21T09:02:47.682Z,352
2022-11-21T09:03:47.700Z,340
2022-11-21T09:04:50.757Z,360
2022-11-21T09:05:47.682Z,368
2022-11-21T09:06:48.020Z,328
2022-11-21T09:07:48.078Z,308
2022-11-21T09:08:47.682Z,320
2022-11-21T09:09:47.716Z,332
2022-11-21T09:10:47.732Z,360
2022-11-21T09:11:48.317Z,364
2022-11-21T09:12:47.755Z,376
2022-11-21T09:13:47.665Z,388
2022-11-21T09:14:47.695Z,372
2022-11-21T09:15:50.698Z,388
2022-11-21T09:16:47.688Z,364
2022-11-21T09:17:47.949Z,352
2022-11-21T09:18:47.675Z,356
2022-11-21T09:19:47.732Z,368
2022-11-21T09:20:48.028Z,404
2022-11-21T09:21:51.084Z,384
2022-11-21T09:22:47.689Z,484
2022-11-21T09:23:47.830Z,572
2022-11-21T09:24:47.798Z,532
2022-11-21T09:25:47.726Z,568
2022-11-21T09:26:51.568Z,564
2022-11-21T09:27:47.727Z,596
2022-11-21T09:28:47.723Z,496
2022-11-21T09:29:56.338Z,444
2022-11-21T09:30:47.725Z,476
2022-11-21T09:31:48.507Z,440
2022-11-21T09:32:47.724Z,492
2022-11-21T09:33:49.704Z,508
2022-11-21T09:34:47.755Z,496
2022-11-21T09:35:48.007Z,436
2022-11-21T09:36:47.723Z,348
2022-11-21T09:37:50.540Z,324
2022-11-21T09:38:47.723Z,272
2022-11-21T09:39:48.956Z,252
2022-11-21T09:40:47.699Z,216
2022-11-21T09:41:47.763Z,188
2022-11-21T09:42:50.970Z,184
2022-11-21T09:43:50.666Z,176
2022-11-21T09:44:47.790Z,184
2022-11-21T09:45:47.745Z,208
2022-11-21T09:46:47.737Z,232
2022-11-21T09:47:47.709Z,252
2022-11-21T09:48:50.506Z,216
2022-11-21T09:49:47.759Z,220
2022-11-21T09:50:53.903Z,220
2022-11-21T09:51:48.522Z,224
2022-11-21T09:52:47.753Z,240
2022-11-21T09:53:51.956Z,276
2022-11-21T09:54:48.059Z,340
2022-11-21T09:55:47.788Z,380
2022-11-21T09:56:47.740Z,376
2022-11-21T09:57:47.800Z,384
2022-11-21T09:58:47.805Z,412
2022-11-21T09:59:50.804Z,408
2022-11-21T10:00:48.091Z,352
2022-11-21T10:01:47.811Z,324
2022-11-21T10:02:47.786Z,312
2022-11-21T10:03:50.494Z,252
2022-11-21T10:04:49.764Z,204
2022-11-21T10:05:47.751Z,196
2022-11-21T10:06:47.800Z,196
2022-11-21T10:07:49.588Z,200
2022-11-21T10:08:48.045Z,208
2022-11-21T10:09:48.168Z,204
2022-11-21T10:10:50.813Z,184
2022-11-21T10:11:48.059Z,168
2022-11-21T10:12:47.824Z,156
2022-11-21T10:13:47.811Z,140
2022-11-21T10:14:48.201Z,124
2022-11-21T10:15:51.760Z,120
2022-11-21T10:16:49.225Z,140
2022-11-21T10:17:48.126Z,152
2022-11-21T10:18:47.783Z,148
2022-11-21T10:19:47.796Z,140
2022-11-21T10:20:47.842Z,136
2022-11-21T10:21:47.794Z,140
2022-11-21T10:22:47.776Z,144
2022-11-21T10:23:47.837Z,148
2022-11-21T10:24:47.798Z,144
2022-11-21T10:25:47.816Z,128
2022-11-21T10:26:50.857Z,116
2022-11-21T10:27:47.789Z,112
2022-11-21T10:28:47.797Z,116
2022-11-21T10:29:47.851Z,124
2022-11-21T10:30:47.933Z,128
2022-11-21T10:31:47.856Z,124
2022-11-21T10:32:47.782Z,120
2022-11-21T10:33:47.808Z,120
2022-11-21T10:34:47.867Z,120
2022-11-21T10:35:50.768Z,128
2022-11-21T10:36:47.800Z,144
2022-11-21T10:37:47.836Z,176
2022-11-21T10:38:47.835Z,204
2022-11-21T10:39:47.843Z,212
2022-11-21T10:40:47.812Z,232
2022-11-21T10:41:47.935Z,244
2022-11-21T10:42:48.591Z,256
2022-11-21T10:43:47.822Z,260
2022-11-21T10:44:47.839Z,256
2022-11-21T10:45:47.857Z,248
2022-11-21T10:46:47.880Z,264
2022-11-21T10:47:47.835Z,276
2022-11-21T10:48:47.828Z,276
2022-11-21T10:49:47.858Z,248
2022-11-21T10:50:47.843Z,212
2022-11-21T10:51:47.838Z,164
2022-11-21T10:52:48.089Z,144
2022-11-21T10:53:51.934Z,140
2022-11-21T10:54:47.859Z,144
2022-11-21T10:55:47.829Z,148
2022-11-21T10:56:47.874Z,152
2022-11-21T10:57:47.866Z,160
2022-11-21T10:58:50.924Z,160
2022-11-21T10:59:47.856Z,168
2022-11-21T11:00:48.310Z,188
2022-11-21T11:01:48.047Z,248
2022-11-21T11:02:49.356Z,308
2022-11-21T11:04:44.386Z,336
2022-11-21T11:05:00.707Z,320
2022-11-21T11:06:02.506Z,284
2022-11-21T11:07:00.082Z,260
2022-11-21T11:07:59.807Z,268
2022-11-21T11:08:59.755Z,276
2022-11-21T11:09:59.733Z,284
2022-11-21T11:11:04.205Z,276
2022-11-21T11:11:59.770Z,320
2022-11-21T11:13:01.928Z,420
2022-11-21T11:13:59.737Z,396
2022-11-21T11:14:59.754Z,356
2022-11-21T11:15:59.763Z,348
2022-11-21T11:17:02.913Z,420
2022-11-21T11:18:04.105Z,460
2022-11-21T11:18:59.881Z,380
2022-11-21T11:19:59.760Z,348
2022-11-21T11:21:00.398Z,328
2022-11-21T11:22:02.595Z,320
2022-11-21T11:22:59.730Z,308
2022-11-21T11:23:59.751Z,288
2022-11-21T11:25:05.664Z,248
2022-11-21T11:25:59.729Z,220
2022-11-21T11:26:59.734Z,208
2022-11-21T11:28:02.490Z,192
2022-11-21T11:28:59.876Z,184
2022-11-21T11:30:00.148Z,176
2022-11-21T11:30:59.752Z,172
2022-11-21T11:31:59.764Z,176
2022-11-21T11:33:02.583Z,184
2022-11-21T11:33:59.795Z,184
2022-11-21T11:34:59.804Z,184
2022-11-21T11:35:59.753Z,160
2022-11-21T11:36:59.760Z,148
2022-11-21T11:37:59.757Z,140
2022-11-21T11:39:02.706Z,124
2022-11-21T11:39:59.788Z,108
2022-11-21T11:41:00.269Z,96
2022-11-21T11:41:59.770Z,96
2022-11-21T11:42:59.763Z,116
2022-11-21T11:44:02.526Z,144
2022-11-21T11:44:59.813Z,184
2022-11-21T11:45:59.760Z,232
2022-11-21T11:46:59.764Z,276
2022-11-21T11:48:01.682Z,312
2022-11-21T11:49:29.878Z,400
2022-11-21T11:50:02.637Z,380
2022-11-21T11:51:00.310Z,336
2022-11-21T11:51:59.798Z,320
2022-11-21T11:52:59.781Z,300
2022-11-21T11:54:05.902Z,276
2022-11-21T11:55:02.656Z,272
2022-11-21T11:55:59.786Z,276
2022-11-21T11:56:59.857Z,272
2022-11-21T11:57:59.803Z,268
2022-11-21T11:58:59.860Z,264
2022-11-21T11:59:59.812Z,280
2022-11-21T12:00:59.793Z,300
2022-11-21T12:02:00.141Z,340
2022-11-21T12:02:59.800Z,360
2022-11-21T12:04:04.764Z,368
2022-11-21T12:04:59.909Z,372
2022-11-21T12:06:09.544Z,364
2022-11-21T12:08:50.005Z,384
2022-11-21T12:09:00.051Z,388
2022-11-21T12:09:59.597Z,348
2022-11-21T12:11:00.418Z,304
2022-11-21T12:11:59.562Z,280
2022-11-21T12:12:59.577Z,268
2022-11-21T12:13:59.569Z,256
2022-11-21T12:14:59.616Z,248
2022-11-21T12:16:14.374Z,244
2022-11-21T12:17:02.607Z,248
2022-11-21T12:18:02.607Z,256
2022-11-21T12:18:59.702Z,256
2022-11-21T12:19:59.595Z,248
2022-11-21T12:20:59.650Z,236
2022-11-21T12:21:59.606Z,228
2022-11-21T12:22:59.586Z,228
2022-11-21T12:23:59.674Z,220
2022-11-21T12:24:59.626Z,220
2022-11-21T12:25:59.595Z,216
2022-11-21T12:26:59.580Z,212
2022-11-21T12:27:59.614Z,212
2022-11-21T12:28:59.823Z,216
2022-11-21T12:29:59.612Z,216
2022-11-21T12:31:00.127Z,224
2022-11-21T12:31:59.589Z,236
2022-11-21T12:33:11.054Z,248
2022-11-21T12:33:59.596Z,232
2022-11-21T12:34:59.668Z,240
2022-11-21T12:36:20.229Z,200
2022-11-21T12:36:59.664Z,228
2022-11-21T12:37:59.615Z,236
2022-11-21T12:38:59.710Z,232
2022-11-21T12:39:59.635Z,232
2022-11-21T12:40:59.588Z,220
2022-11-21T12:41:59.603Z,172
2022-11-21T12:42:59.595Z,212
2022-11-21T12:44:07.151Z,228
2022-11-21T12:44:59.682Z,168
2022-11-21T12:45:59.598Z,228
2022-11-21T12:46:59.617Z,240
2022-11-21T12:47:59.645Z,240
2022-11-21T12:49:02.617Z,228
2022-11-21T12:50:01.638Z,224
2022-11-21T12:50:59.620Z,188
2022-11-21T12:51:59.682Z,152
2022-11-21T12:52:59.658Z,144
2022-11-21T12:53:59.629Z,144
2022-11-21T12:54:59.672Z,148
2022-11-21T12:55:59.630Z,200
2022-11-21T12:56:59.654Z,204
2022-11-21T12:57:59.619Z,152
2022-11-21T12:58:59.648Z,132
2022-11-21T13:00:02.670Z,132
2022-11-21T13:00:59.831Z,136
2022-11-21T13:02:00.055Z,128
2022-11-21T13:02:59.616Z,132
2022-11-21T13:03:59.724Z,128
2022-11-21T13:05:01.248Z,136
2022-11-21T13:05:59.621Z,136
2022-11-21T13:06:59.654Z,136
2022-11-21T13:07:59.838Z,140
2022-11-21T13:08:59.683Z,144
2022-11-21T13:09:59.660Z,144
2022-11-21T13:11:02.755Z,144
2022-11-21T13:11:59.657Z,136
2022-11-21T13:12:59.642Z,120
2022-11-21T13:13:59.647Z,124
2022-11-21T13:14:59.674Z,124
2022-11-21T13:16:05.540Z,132
2022-11-21T13:16:59.665Z,144
2022-11-21T13:17:59.650Z,164
2022-11-21T13:18:59.651Z,192
2022-11-21T13:19:59.683Z,216
2022-11-21T13:20:59.641Z,216
2022-11-21T13:21:59.931Z,208
2022-11-21T13:22:59.684Z,200
2022-11-21T13:23:59.813Z,192
2022-11-21T13:24:59.735Z,176
2022-11-21T13:25:59.669Z,172
2022-11-21T13:27:02.794Z,212
2022-11-21T13:27:59.676Z,212
2022-11-21T13:28:59.673Z,212
2022-11-21T13:29:59.700Z,208
2022-11-21T13:31:03.168Z,192
2022-11-21T13:31:59.679Z,128
2022-11-21T13:33:02.441Z,116
2022-11-21T13:33:59.681Z,116
2022-11-21T13:34:59.713Z,116
2022-11-21T13:35:59.676Z,116
2022-11-21T13:36:59.715Z,124
2022-11-21T13:38:02.757Z,116
2022-11-21T13:38:59.770Z,116
2022-11-21T13:39:59.794Z,120
2022-11-21T13:40:59.741Z,156
2022-11-21T13:41:59.955Z,152
2022-11-21T13:43:39.974Z,144
2022-11-21T13:44:02.474Z,160
2022-11-21T13:44:59.722Z,168
2022-11-21T13:45:59.734Z,176
2022-11-21T13:46:59.699Z,168
2022-11-21T13:48:03.750Z,156
2022-11-21T13:49:02.454Z,128
2022-11-21T13:49:59.724Z,152
2022-11-21T13:50:59.683Z,136
2022-11-21T13:51:59.839Z,124
2022-11-21T13:52:59.743Z,128
2022-11-21T13:54:05.203Z,124
2022-11-21T13:55:02.796Z,120
2022-11-21T13:55:59.753Z,116
2022-11-21T13:56:59.739Z,112
2022-11-21T13:57:59.714Z,120
2022-11-21T13:58:59.724Z,124
2022-11-21T14:00:01.003Z,124
2022-11-21T14:01:00.910Z,124
2022-11-21T14:02:00.034Z,128
2022-11-21T14:02:59.718Z,132
2022-11-21T14:03:59.719Z,132
2022-11-21T14:05:00.230Z,132
2022-11-21T14:06:02.493Z,132
2022-11-21T14:07:00.234Z,124
2022-11-21T14:08:00.325Z,128
2022-11-21T14:08:59.731Z,124
2022-11-21T14:09:59.754Z,124
2022-11-21T14:11:03.161Z,120
2022-11-21T14:11:59.738Z,112
2022-11-21T14:12:59.756Z,108
2022-11-21T14:13:59.725Z,100
2022-11-21T14:14:59.801Z,100
2022-11-21T14:15:59.748Z,92
2022-11-21T14:16:59.727Z,96
2022-11-21T14:17:59.758Z,100